sensor_id;sensor_type;location;lat;lon;timestamp;temperature;humidity
15556;DHT22;7879;48.660;9.116;2023-05-01T00:02:32;9.60;99.90
15556;DHT22;7879;48.660;9.116;2023-05-01T00:07:52;9.50;99.90
15556;DHT22;7879;48.660;9.116;2023-05-01T00:10:21;9.60;99.90
15556;DHT22;7879;48.660;9.116;2023-05-01T00:12:54;9.60;99.90
15556;DHT22;7879;48.660;9.116;2023-05-01T00:15:27;9.50;99.90
15556;DHT22;7879;48.660;9.116;2023-05-01T00:17:57;9.40;99.90
15556;DHT22;7879;48.660;9.116;2023-05-01T00:20:31;9.40;99.90
15556;DHT22;7879;48.660;9.116;2023-05-01T00:23:04;9.30;99.90
15556;DHT22;7879;48.660;9.116;2023-05-01T00:25:40;9.40;99.90
15556;DHT22;7879;48.660;9.116;2023-05-01T00:28:10;9.30;99.90
15556;DHT22;7879;48.660;9.116;2023-05-01T00:30:42;9.20;99.90
15556;DHT22;7879;48.660;9.116;2023-05-01T00:33:17;9.20;99.90
15556;DHT22;7879;48.660;9.116;2023-05-01T00:35:47;9.10;99.90
15556;DHT22;7879;48.660;9.116;2023-05-01T00:38:31;9.00;99.90
15556;DHT22;7879;48.660;9.116;2023-05-01T00:40:59;9.00;99.90
15556;DHT22;7879;48.660;9.116;2023-05-01T00:43:37;9.10;99.90
15556;DHT22;7879;48.660;9.116;2023-05-01T00:46:06;9.10;99.90
15556;DHT22;7879;48.660;9.116;2023-05-01T00:48:34;9.00;99.90
15556;DHT22;7879;48.660;9.116;2023-05-01T00:51:08;9.10;99.90
15556;DHT22;7879;48.660;9.116;2023-05-01T00:53:39;9.10;99.90
15556;DHT22;7879;48.660;9.116;2023-05-01T00:56:10;9.00;99.90
15556;DHT22;7879;48.660;9.116;2023-05-01T00:58:37;9.00;99.90
15556;DHT22;7879;48.660;9.116;2023-05-01T01:01:04;8.90;99.90
15556;DHT22;7879;48.660;9.116;2023-05-01T01:03:31;8.90;99.90
15556;DHT22;7879;48.660;9.116;2023-05-01T01:06:38;8.90;99.90
15556;DHT22;7879;48.660;9.116;2023-05-01T01:15:06;8.80;99.90
15556;DHT22;7879;48.660;9.116;2023-05-01T01:20:48;8.80;99.90
15556;DHT22;7879;48.660;9.116;2023-05-01T01:29:38;8.90;99.90
15556;DHT22;7879;48.660;9.116;2023-05-01T01:35:04;8.90;99.90
15556;DHT22;7879;48.660;9.116;2023-05-01T01:37:41;8.90;99.90
15556;DHT22;7879;48.660;9.116;2023-05-01T01:40:13;8.90;99.90
15556;DHT22;7879;48.660;9.116;2023-05-01T01:43:11;8.80;99.90
15556;DHT22;7879;48.660;9.116;2023-05-01T01:45:41;8.90;99.90
15556;DHT22;7879;48.660;9.116;2023-05-01T01:48:10;8.90;99.90
15556;DHT22;7879;48.660;9.116;2023-05-01T01:50:41;8.90;99.90
15556;DHT22;7879;48.660;9.116;2023-05-01T01:53:12;8.90;99.90
15556;DHT22;7879;48.660;9.116;2023-05-01T01:55:42;8.80;99.90
15556;DHT22;7879;48.660;9.116;2023-05-01T01:58:10;8.80;99.90
15556;DHT22;7879;48.660;9.116;2023-05-01T02:00:39;8.80;99.90
15556;DHT22;7879;48.660;9.116;2023-05-01T02:03:09;8.90;99.90
15556;DHT22;7879;48.660;9.116;2023-05-01T02:05:38;8.80;99.90
15556;DHT22;7879;48.660;9.116;2023-05-01T02:08:06;8.80;99.90
15556;DHT22;7879;48.660;9.116;2023-05-01T02:10:35;8.80;99.90
15556;DHT22;7879;48.660;9.116;2023-05-01T02:13:02;8.80;99.90
15556;DHT22;7879;48.660;9.116;2023-05-01T02:15:30;8.80;99.90
15556;DHT22;7879;48.660;9.116;2023-05-01T02:17:58;8.80;99.90
15556;DHT22;7879;48.660;9.116;2023-05-01T02:20:27;8.80;99.90
15556;DHT22;7879;48.660;9.116;2023-05-01T02:22:55;8.80;99.90
15556;DHT22;7879;48.660;9.116;2023-05-01T02:25:23;8.80;99.90
15556;DHT22;7879;48.660;9.116;2023-05-01T02:27:56;8.80;99.90
15556;DHT22;7879;48.660;9.116;2023-05-01T02:30:25;8.80;99.90
15556;DHT22;7879;48.660;9.116;2023-05-01T02:32:52;8.70;99.90
15556;DHT22;7879;48.660;9.116;2023-05-01T02:35:19;8.80;99.90
15556;DHT22;7879;48.660;9.116;2023-05-01T02:37:47;8.70;99.90
15556;DHT22;7879;48.660;9.116;2023-05-01T02:40:14;8.70;99.90
15556;DHT22;7879;48.660;9.116;2023-05-01T02:42:45;8.70;99.90
15556;DHT22;7879;48.660;9.116;2023-05-01T02:45:21;8.60;99.90
15556;DHT22;7879;48.660;9.116;2023-05-01T02:47:51;8.60;99.90
15556;DHT22;7879;48.660;9.116;2023-05-01T02:50:21;8.60;99.90
15556;DHT22;7879;48.660;9.116;2023-05-01T02:52:49;8.70;99.90
15556;DHT22;7879;48.660;9.116;2023-05-01T02:55:16;8.60;99.90
15556;DHT22;7879;48.660;9.116;2023-05-01T02:57:43;8.60;99.90
15556;DHT22;7879;48.660;9.116;2023-05-01T03:00:11;8.60;99.90
15556;DHT22;7879;48.660;9.116;2023-05-01T03:02:39;8.60;99.90
15556;DHT22;7879;48.660;9.116;2023-05-01T03:05:06;8.60;99.90
15556;DHT22;7879;48.660;9.116;2023-05-01T03:07:33;8.60;99.90
15556;DHT22;7879;48.660;9.116;2023-05-01T03:10:02;8.60;99.90
15556;DHT22;7879;48.660;9.116;2023-05-01T03:12:29;8.60;99.90
15556;DHT22;7879;48.660;9.116;2023-05-01T03:14:56;8.60;99.90
15556;DHT22;7879;48.660;9.116;2023-05-01T03:17:23;8.60;99.90
15556;DHT22;7879;48.660;9.116;2023-05-01T03:19:50;8.60;99.90
15556;DHT22;7879;48.660;9.116;2023-05-01T03:22:17;8.50;99.90
15556;DHT22;7879;48.660;9.116;2023-05-01T03:24:44;8.50;99.90
15556;DHT22;7879;48.660;9.116;2023-05-01T03:27:12;8.50;99.90
15556;DHT22;7879;48.660;9.116;2023-05-01T03:29:39;8.50;99.90
15556;DHT22;7879;48.660;9.116;2023-05-01T03:32:06;8.60;99.90
15556;DHT22;7879;48.660;9.116;2023-05-01T03:34:33;8.50;99.90
15556;DHT22;7879;48.660;9.116;2023-05-01T03:37:00;8.60;99.90
15556;DHT22;7879;48.660;9.116;2023-05-01T03:39:27;8.60;99.90
15556;DHT22;7879;48.660;9.116;2023-05-01T03:41:53;8.60;99.90
15556;DHT22;7879;48.660;9.116;2023-05-01T03:44:20;8.60;99.90
15556;DHT22;7879;48.660;9.116;2023-05-01T03:46:47;8.60;99.90
15556;DHT22;7879;48.660;9.116;2023-05-01T03:49:14;8.60;99.90
15556;DHT22;7879;48.660;9.116;2023-05-01T03:51:41;8.60;99.90
15556;DHT22;7879;48.660;9.116;2023-05-01T03:54:08;8.70;99.90
15556;DHT22;7879;48.660;9.116;2023-05-01T03:56:34;8.70;99.90
15556;DHT22;7879;48.660;9.116;2023-05-01T03:59:02;8.60;99.90
15556;DHT22;7879;48.660;9.116;2023-05-01T04:01:29;8.60;99.90
15556;DHT22;7879;48.660;9.116;2023-05-01T04:03:59;8.60;99.90
15556;DHT22;7879;48.660;9.116;2023-05-01T04:06:25;8.60;99.90
15556;DHT22;7879;48.660;9.116;2023-05-01T04:08:52;8.60;99.90
15556;DHT22;7879;48.660;9.116;2023-05-01T04:11:19;8.60;99.90
15556;DHT22;7879;48.660;9.116;2023-05-01T04:13:46;8.60;99.90
15556;DHT22;7879;48.660;9.116;2023-05-01T04:16:13;8.60;99.90
15556;DHT22;7879;48.660;9.116;2023-05-01T04:18:40;8.70;99.90
15556;DHT22;7879;48.660;9.116;2023-05-01T04:21:07;8.60;99.90
15556;DHT22;7879;48.660;9.116;2023-05-01T04:23:34;8.60;99.90
15556;DHT22;7879;48.660;9.116;2023-05-01T04:26:00;8.60;99.90
15556;DHT22;7879;48.660;9.116;2023-05-01T04:28:27;8.60;99.90
15556;DHT22;7879;48.660;9.116;2023-05-01T04:30:56;8.60;99.90
15556;DHT22;7879;48.660;9.116;2023-05-01T04:33:23;8.70;99.90
15556;DHT22;7879;48.660;9.116;2023-05-01T04:35:50;8.60;99.90
15556;DHT22;7879;48.660;9.116;2023-05-01T04:38:17;8.60;99.90
15556;DHT22;7879;48.660;9.116;2023-05-01T04:40:44;8.60;99.90
15556;DHT22;7879;48.660;9.116;2023-05-01T04:43:11;8.60;99.90
15556;DHT22;7879;48.660;9.116;2023-05-01T04:45:38;8.60;99.90
15556;DHT22;7879;48.660;9.116;2023-05-01T04:48:05;8.70;99.90
15556;DHT22;7879;48.660;9.116;2023-05-01T04:50:32;8.70;99.90
15556;DHT22;7879;48.660;9.116;2023-05-01T04:52:59;8.70;99.90
15556;DHT22;7879;48.660;9.116;2023-05-01T04:55:26;8.70;99.90
15556;DHT22;7879;48.660;9.116;2023-05-01T04:57:55;8.70;99.90
15556;DHT22;7879;48.660;9.116;2023-05-01T05:00:23;8.70;99.90
15556;DHT22;7879;48.660;9.116;2023-05-01T05:02:50;8.70;99.90
15556;DHT22;7879;48.660;9.116;2023-05-01T05:05:17;8.60;99.90
15556;DHT22;7879;48.660;9.116;2023-05-01T05:07:43;8.60;99.90
15556;DHT22;7879;48.660;9.116;2023-05-01T05:10:10;8.60;99.90
15556;DHT22;7879;48.660;9.116;2023-05-01T05:12:37;8.70;99.90
15556;DHT22;7879;48.660;9.116;2023-05-01T05:15:04;8.70;99.90
15556;DHT22;7879;48.660;9.116;2023-05-01T05:17:31;8.70;99.90
15556;DHT22;7879;48.660;9.116;2023-05-01T05:19:58;8.70;99.90
15556;DHT22;7879;48.660;9.116;2023-05-01T05:22:25;8.70;99.90
15556;DHT22;7879;48.660;9.116;2023-05-01T05:24:52;8.70;99.90
15556;DHT22;7879;48.660;9.116;2023-05-01T05:27:20;8.60;99.90
15556;DHT22;7879;48.660;9.116;2023-05-01T05:29:47;8.70;99.90
15556;DHT22;7879;48.660;9.116;2023-05-01T05:32:15;8.70;99.90
15556;DHT22;7879;48.660;9.116;2023-05-01T05:34:42;8.70;99.90
15556;DHT22;7879;48.660;9.116;2023-05-01T05:37:09;8.70;99.90
15556;DHT22;7879;48.660;9.116;2023-05-01T05:39:37;8.70;99.90
15556;DHT22;7879;48.660;9.116;2023-05-01T05:42:04;8.70;99.90
15556;DHT22;7879;48.660;9.116;2023-05-01T05:44:31;8.70;99.90
15556;DHT22;7879;48.660;9.116;2023-05-01T05:47:01;8.70;99.90
15556;DHT22;7879;48.660;9.116;2023-05-01T05:49:28;8.70;99.90
15556;DHT22;7879;48.660;9.116;2023-05-01T05:51:55;8.80;99.90
15556;DHT22;7879;48.660;9.116;2023-05-01T05:54:22;8.80;99.90
15556;DHT22;7879;48.660;9.116;2023-05-01T05:56:49;8.80;99.90
15556;DHT22;7879;48.660;9.116;2023-05-01T05:59:15;8.80;99.90
15556;DHT22;7879;48.660;9.116;2023-05-01T06:01:43;8.80;99.90
15556;DHT22;7879;48.660;9.116;2023-05-01T06:04:10;8.80;99.90
15556;DHT22;7879;48.660;9.116;2023-05-01T06:06:38;8.80;99.90
15556;DHT22;7879;48.660;9.116;2023-05-01T06:09:05;8.80;99.90
15556;DHT22;7879;48.660;9.116;2023-05-01T06:11:33;8.80;99.90
15556;DHT22;7879;48.660;9.116;2023-05-01T06:14:00;8.90;99.90
15556;DHT22;7879;48.660;9.116;2023-05-01T06:16:28;8.90;99.90
15556;DHT22;7879;48.660;9.116;2023-05-01T06:18:55;8.90;99.90
15556;DHT22;7879;48.660;9.116;2023-05-01T06:21:22;9.00;99.90
15556;DHT22;7879;48.660;9.116;2023-05-01T06:23:49;9.00;99.90
15556;DHT22;7879;48.660;9.116;2023-05-01T06:26:16;9.00;99.90
15556;DHT22;7879;48.660;9.116;2023-05-01T06:28:42;9.10;99.90
15556;DHT22;7879;48.660;9.116;2023-05-01T06:31:09;9.20;99.90
15556;DHT22;7879;48.660;9.116;2023-05-01T06:33:36;9.20;99.90
15556;DHT22;7879;48.660;9.116;2023-05-01T06:36:03;9.20;99.90
15556;DHT22;7879;48.660;9.116;2023-05-01T06:38:30;9.20;99.90
15556;DHT22;7879;48.660;9.116;2023-05-01T06:40:58;9.20;99.90
15556;DHT22;7879;48.660;9.116;2023-05-01T06:43:25;9.30;99.90
15556;DHT22;7879;48.660;9.116;2023-05-01T06:45:56;9.30;99.90
15556;DHT22;7879;48.660;9.116;2023-05-01T06:48:23;9.30;99.90
15556;DHT22;7879;48.660;9.116;2023-05-01T06:50:50;9.40;99.90
15556;DHT22;7879;48.660;9.116;2023-05-01T06:53:17;9.40;99.90
15556;DHT22;7879;48.660;9.116;2023-05-01T06:55:44;9.60;99.90
15556;DHT22;7879;48.660;9.116;2023-05-01T06:58:10;9.50;99.90
15556;DHT22;7879;48.660;9.116;2023-05-01T07:00:48;9.50;99.90
15556;DHT22;7879;48.660;9.116;2023-05-01T07:03:16;9.50;99.90
15556;DHT22;7879;48.660;9.116;2023-05-01T07:05:42;9.60;99.90
15556;DHT22;7879;48.660;9.116;2023-05-01T07:08:09;9.50;99.90
15556;DHT22;7879;48.660;9.116;2023-05-01T07:10:36;9.50;99.90
15556;DHT22;7879;48.660;9.116;2023-05-01T07:13:06;9.60;99.90
15556;DHT22;7879;48.660;9.116;2023-05-01T07:15:33;9.60;99.90
15556;DHT22;7879;48.660;9.116;2023-05-01T07:18:00;9.60;99.90
15556;DHT22;7879;48.660;9.116;2023-05-01T07:20:28;9.60;99.90
15556;DHT22;7879;48.660;9.116;2023-05-01T07:22:55;9.70;99.90
15556;DHT22;7879;48.660;9.116;2023-05-01T07:25:22;9.60;99.90
15556;DHT22;7879;48.660;9.116;2023-05-01T07:27:50;9.70;99.90
15556;DHT22;7879;48.660;9.116;2023-05-01T07:30:17;9.80;99.90
15556;DHT22;7879;48.660;9.116;2023-05-01T07:32:44;9.70;99.90
15556;DHT22;7879;48.660;9.116;2023-05-01T07:35:11;9.80;99.90
15556;DHT22;7879;48.660;9.116;2023-05-01T07:37:39;9.80;99.90
15556;DHT22;7879;48.660;9.116;2023-05-01T07:40:06;9.90;99.90
15556;DHT22;7879;48.660;9.116;2023-05-01T07:42:33;9.90;99.90
15556;DHT22;7879;48.660;9.116;2023-05-01T07:45:00;9.90;99.90
15556;DHT22;7879;48.660;9.116;2023-05-01T07:47:27;10.00;99.90
15556;DHT22;7879;48.660;9.116;2023-05-01T07:49:54;10.00;99.90
15556;DHT22;7879;48.660;9.116;2023-05-01T07:52:21;10.00;99.90
15556;DHT22;7879;48.660;9.116;2023-05-01T07:54:49;10.00;99.90
15556;DHT22;7879;48.660;9.116;2023-05-01T07:57:16;10.10;99.90
15556;DHT22;7879;48.660;9.116;2023-05-01T07:59:43;10.10;99.90
15556;DHT22;7879;48.660;9.116;2023-05-01T08:02:10;10.10;99.90
15556;DHT22;7879;48.660;9.116;2023-05-01T08:04:39;10.10;99.90
15556;DHT22;7879;48.660;9.116;2023-05-01T08:07:07;10.20;99.90
15556;DHT22;7879;48.660;9.116;2023-05-01T08:09:34;10.30;99.90
15556;DHT22;7879;48.660;9.116;2023-05-01T08:12:01;10.30;99.90
15556;DHT22;7879;48.660;9.116;2023-05-01T08:14:29;10.30;99.90
15556;DHT22;7879;48.660;9.116;2023-05-01T08:16:56;10.30;99.90
15556;DHT22;7879;48.660;9.116;2023-05-01T08:19:23;10.40;99.90
15556;DHT22;7879;48.660;9.116;2023-05-01T08:21:51;10.50;99.90
15556;DHT22;7879;48.660;9.116;2023-05-01T08:24:17;10.60;99.90
15556;DHT22;7879;48.660;9.116;2023-05-01T08:26:44;10.70;99.90
15556;DHT22;7879;48.660;9.116;2023-05-01T08:29:12;10.70;99.90
15556;DHT22;7879;48.660;9.116;2023-05-01T08:31:39;10.70;99.90
15556;DHT22;7879;48.660;9.116;2023-05-01T08:34:08;10.80;99.90
15556;DHT22;7879;48.660;9.116;2023-05-01T08:36:35;10.80;99.90
15556;DHT22;7879;48.660;9.116;2023-05-01T08:39:01;10.80;99.90
15556;DHT22;7879;48.660;9.116;2023-05-01T08:41:29;10.90;99.90
15556;DHT22;7879;48.660;9.116;2023-05-01T08:43:59;11.00;99.90
15556;DHT22;7879;48.660;9.116;2023-05-01T08:49:18;11.20;99.90
15556;DHT22;7879;48.660;9.116;2023-05-01T08:51:50;11.30;99.90
15556;DHT22;7879;48.660;9.116;2023-05-01T08:54:19;11.40;99.90
15556;DHT22;7879;48.660;9.116;2023-05-01T08:56:46;11.40;99.90
15556;DHT22;7879;48.660;9.116;2023-05-01T08:59:14;11.50;99.90
15556;DHT22;7879;48.660;9.116;2023-05-01T09:01:41;11.60;99.90
15556;DHT22;7879;48.660;9.116;2023-05-01T09:04:10;11.60;99.90
15556;DHT22;7879;48.660;9.116;2023-05-01T09:06:37;11.70;99.90
15556;DHT22;7879;48.660;9.116;2023-05-01T09:09:04;11.70;99.90
15556;DHT22;7879;48.660;9.116;2023-05-01T09:11:32;11.80;99.90
15556;DHT22;7879;48.660;9.116;2023-05-01T09:13:59;11.90;99.90
15556;DHT22;7879;48.660;9.116;2023-05-01T09:16:28;11.90;99.90
15556;DHT22;7879;48.660;9.116;2023-05-01T09:18:56;12.00;99.90
15556;DHT22;7879;48.660;9.116;2023-05-01T09:21:27;12.00;99.90
15556;DHT22;7879;48.660;9.116;2023-05-01T09:23:54;12.10;99.90
15556;DHT22;7879;48.660;9.116;2023-05-01T09:26:22;12.30;99.90
15556;DHT22;7879;48.660;9.116;2023-05-01T09:28:49;12.50;99.90
15556;DHT22;7879;48.660;9.116;2023-05-01T09:31:25;12.70;99.90
15556;DHT22;7879;48.660;9.116;2023-05-01T09:33:58;12.90;99.90
15556;DHT22;7879;48.660;9.116;2023-05-01T09:36:27;13.20;99.90
15556;DHT22;7879;48.660;9.116;2023-05-01T09:38:55;13.50;99.90
15556;DHT22;7879;48.660;9.116;2023-05-01T09:41:29;13.40;99.90
15556;DHT22;7879;48.660;9.116;2023-05-01T09:43:59;13.40;99.90
15556;DHT22;7879;48.660;9.116;2023-05-01T09:46:27;13.40;99.90
15556;DHT22;7879;48.660;9.116;2023-05-01T09:48:59;13.30;99.90
15556;DHT22;7879;48.660;9.116;2023-05-01T09:51:31;13.30;99.90
15556;DHT22;7879;48.660;9.116;2023-05-01T09:54:02;13.40;99.90
15556;DHT22;7879;48.660;9.116;2023-05-01T09:56:31;13.40;99.90
15556;DHT22;7879;48.660;9.116;2023-05-01T09:59:14;13.40;99.90
15556;DHT22;7879;48.660;9.116;2023-05-01T10:01:44;13.50;99.90
15556;DHT22;7879;48.660;9.116;2023-05-01T10:04:12;13.60;99.90
15556;DHT22;7879;48.660;9.116;2023-05-01T10:06:40;13.80;99.90
15556;DHT22;7879;48.660;9.116;2023-05-01T10:09:07;13.80;99.90
15556;DHT22;7879;48.660;9.116;2023-05-01T10:11:50;13.80;99.90
15556;DHT22;7879;48.660;9.116;2023-05-01T10:14:23;13.80;99.90
15556;DHT22;7879;48.660;9.116;2023-05-01T10:16:51;13.90;99.90
15556;DHT22;7879;48.660;9.116;2023-05-01T10:19:24;14.00;99.90
15556;DHT22;7879;48.660;9.116;2023-05-01T10:21:52;14.20;99.90
15556;DHT22;7879;48.660;9.116;2023-05-01T10:24:19;14.10;99.90
15556;DHT22;7879;48.660;9.116;2023-05-01T10:26:47;14.20;99.90
15556;DHT22;7879;48.660;9.116;2023-05-01T10:29:14;14.30;99.90
15556;DHT22;7879;48.660;9.116;2023-05-01T10:31:49;14.40;99.90
15556;DHT22;7879;48.660;9.116;2023-05-01T10:34:41;14.50;99.90
15556;DHT22;7879;48.660;9.116;2023-05-01T10:39:58;14.70;99.90
15556;DHT22;7879;48.660;9.116;2023-05-01T10:42:33;14.70;99.90
15556;DHT22;7879;48.660;9.116;2023-05-01T10:45:31;14.60;99.90
15556;DHT22;7879;48.660;9.116;2023-05-01T10:48:00;14.70;99.90
15556;DHT22;7879;48.660;9.116;2023-05-01T10:51:15;14.50;99.90
15556;DHT22;7879;48.660;9.116;2023-05-01T10:56:50;14.60;99.90
15556;DHT22;7879;48.660;9.116;2023-05-01T10:59:22;14.50;99.90
15556;DHT22;7879;48.660;9.116;2023-05-01T11:02:20;14.60;99.90
15556;DHT22;7879;48.660;9.116;2023-05-01T11:04:59;14.60;99.90
15556;DHT22;7879;48.660;9.116;2023-05-01T11:08:46;14.50;99.90
15556;DHT22;7879;48.660;9.116;2023-05-01T11:14:03;14.50;99.90
15556;DHT22;7879;48.660;9.116;2023-05-01T11:16:39;14.50;99.90
15556;DHT22;7879;48.660;9.116;2023-05-01T11:21:50;14.50;99.90
15556;DHT22;7879;48.660;9.116;2023-05-01T11:24:18;14.60;99.90
15556;DHT22;7879;48.660;9.116;2023-05-01T11:26:47;14.50;99.90
15556;DHT22;7879;48.660;9.116;2023-05-01T11:29:17;14.50;99.90
15556;DHT22;7879;48.660;9.116;2023-05-01T11:31:55;14.40;99.90
15556;DHT22;7879;48.660;9.116;2023-05-01T11:34:47;14.60;99.90
15556;DHT22;7879;48.660;9.116;2023-05-01T11:37:49;14.60;99.90
15556;DHT22;7879;48.660;9.116;2023-05-01T11:40:33;14.50;99.90
15556;DHT22;7879;48.660;9.116;2023-05-01T11:43:08;14.50;99.90
15556;DHT22;7879;48.660;9.116;2023-05-01T11:45:44;14.60;99.90
15556;DHT22;7879;48.660;9.116;2023-05-01T11:48:37;14.50;99.90
15556;DHT22;7879;48.660;9.116;2023-05-01T11:51:29;14.50;99.90
15556;DHT22;7879;48.660;9.116;2023-05-01T11:54:21;14.50;99.90
15556;DHT22;7879;48.660;9.116;2023-05-01T11:57:06;14.60;99.90
15556;DHT22;7879;48.660;9.116;2023-05-01T11:59:53;14.50;99.90
15556;DHT22;7879;48.660;9.116;2023-05-01T12:02:35;14.60;99.90
15556;DHT22;7879;48.660;9.116;2023-05-01T12:05:17;14.60;99.90
15556;DHT22;7879;48.660;9.116;2023-05-01T12:08:15;14.60;99.90
15556;DHT22;7879;48.660;9.116;2023-05-01T12:10:53;14.60;99.90
15556;DHT22;7879;48.660;9.116;2023-05-01T12:13:24;14.60;99.90
15556;DHT22;7879;48.660;9.116;2023-05-01T12:15:59;14.60;99.90
15556;DHT22;7879;48.660;9.116;2023-05-01T12:18:37;14.70;99.90
15556;DHT22;7879;48.660;9.116;2023-05-01T12:21:15;14.70;99.90
15556;DHT22;7879;48.660;9.116;2023-05-01T12:23:45;14.80;99.90
15556;DHT22;7879;48.660;9.116;2023-05-01T12:26:20;14.80;99.90
15556;DHT22;7879;48.660;9.116;2023-05-01T12:29:04;14.90;99.90
15556;DHT22;7879;48.660;9.116;2023-05-01T12:31:44;15.00;99.90
15556;DHT22;7879;48.660;9.116;2023-05-01T12:34:35;15.00;99.90
15556;DHT22;7879;48.660;9.116;2023-05-01T12:37:02;15.00;99.90
15556;DHT22;7879;48.660;9.116;2023-05-01T12:39:41;15.10;99.90
15556;DHT22;7879;48.660;9.116;2023-05-01T12:42:15;15.10;99.90
15556;DHT22;7879;48.660;9.116;2023-05-01T12:44:46;15.20;99.90
15556;DHT22;7879;48.660;9.116;2023-05-01T12:47:14;15.20;99.90
15556;DHT22;7879;48.660;9.116;2023-05-01T12:49:41;15.30;99.90
15556;DHT22;7879;48.660;9.116;2023-05-01T12:52:08;15.20;99.90
15556;DHT22;7879;48.660;9.116;2023-05-01T12:54:40;15.20;99.90
15556;DHT22;7879;48.660;9.116;2023-05-01T12:57:09;15.20;99.90
15556;DHT22;7879;48.660;9.116;2023-05-01T12:59:37;15.10;99.90
15556;DHT22;7879;48.660;9.116;2023-05-01T13:02:09;14.90;99.90
15556;DHT22;7879;48.660;9.116;2023-05-01T13:04:42;14.80;99.90
15556;DHT22;7879;48.660;9.116;2023-05-01T13:07:12;14.80;99.90
15556;DHT22;7879;48.660;9.116;2023-05-01T13:09:55;14.70;99.90
15556;DHT22;7879;48.660;9.116;2023-05-01T13:12:25;14.70;99.90
15556;DHT22;7879;48.660;9.116;2023-05-01T13:14:53;14.60;99.90
15556;DHT22;7879;48.660;9.116;2023-05-01T13:17:28;14.40;99.90
15556;DHT22;7879;48.660;9.116;2023-05-01T13:20:01;14.20;99.90
15556;DHT22;7879;48.660;9.116;2023-05-01T13:22:37;14.00;99.90
15556;DHT22;7879;48.660;9.116;2023-05-01T13:25:25;14.00;99.90
15556;DHT22;7879;48.660;9.116;2023-05-01T13:27:53;13.90;99.90
15556;DHT22;7879;48.660;9.116;2023-05-01T13:30:32;13.90;99.90
15556;DHT22;7879;48.660;9.116;2023-05-01T13:33:05;13.90;99.90
15556;DHT22;7879;48.660;9.116;2023-05-01T13:35:37;13.90;99.90
15556;DHT22;7879;48.660;9.116;2023-05-01T13:38:10;13.90;99.90
15556;DHT22;7879;48.660;9.116;2023-05-01T13:40:46;13.90;99.90
15556;DHT22;7879;48.660;9.116;2023-05-01T13:43:13;14.00;99.90
15556;DHT22;7879;48.660;9.116;2023-05-01T13:45:42;13.80;99.90
15556;DHT22;7879;48.660;9.116;2023-05-01T13:48:09;13.80;99.90
15556;DHT22;7879;48.660;9.116;2023-05-01T13:50:39;13.70;99.90
15556;DHT22;7879;48.660;9.116;2023-05-01T13:53:08;13.70;99.90
15556;DHT22;7879;48.660;9.116;2023-05-01T13:55:42;13.60;99.90
15556;DHT22;7879;48.660;9.116;2023-05-01T13:58:23;13.60;99.90
15556;DHT22;7879;48.660;9.116;2023-05-01T14:00:51;13.60;99.90
15556;DHT22;7879;48.660;9.116;2023-05-01T14:03:23;13.50;99.90
15556;DHT22;7879;48.660;9.116;2023-05-01T14:05:51;13.70;99.90
15556;DHT22;7879;48.660;9.116;2023-05-01T14:08:26;13.60;99.90
15556;DHT22;7879;48.660;9.116;2023-05-01T14:10:54;13.60;99.90
15556;DHT22;7879;48.660;9.116;2023-05-01T14:13:25;13.70;99.90
15556;DHT22;7879;48.660;9.116;2023-05-01T14:15:53;13.70;99.90
15556;DHT22;7879;48.660;9.116;2023-05-01T14:18:20;13.60;99.90
15556;DHT22;7879;48.660;9.116;2023-05-01T14:20:48;13.60;99.90
15556;DHT22;7879;48.660;9.116;2023-05-01T14:23:16;13.60;99.90
15556;DHT22;7879;48.660;9.116;2023-05-01T14:25:47;13.60;99.90
15556;DHT22;7879;48.660;9.116;2023-05-01T14:28:14;13.50;99.90
15556;DHT22;7879;48.660;9.116;2023-05-01T14:30:44;13.60;99.90
15556;DHT22;7879;48.660;9.116;2023-05-01T14:33:14;13.60;99.90
15556;DHT22;7879;48.660;9.116;2023-05-01T14:35:50;13.60;99.90
15556;DHT22;7879;48.660;9.116;2023-05-01T14:38:19;13.70;99.90
15556;DHT22;7879;48.660;9.116;2023-05-01T14:40:47;13.60;99.90
15556;DHT22;7879;48.660;9.116;2023-05-01T14:43:19;13.60;99.90
15556;DHT22;7879;48.660;9.116;2023-05-01T14:45:47;13.60;99.90
15556;DHT22;7879;48.660;9.116;2023-05-01T14:48:22;13.60;99.90
15556;DHT22;7879;48.660;9.116;2023-05-01T14:50:50;13.60;99.90
15556;DHT22;7879;48.660;9.116;2023-05-01T14:53:20;13.50;99.90
15556;DHT22;7879;48.660;9.116;2023-05-01T14:55:55;13.50;99.90
15556;DHT22;7879;48.660;9.116;2023-05-01T14:58:24;13.50;99.90
15556;DHT22;7879;48.660;9.116;2023-05-01T15:01:01;13.50;99.90
15556;DHT22;7879;48.660;9.116;2023-05-01T15:03:28;13.50;99.90
15556;DHT22;7879;48.660;9.116;2023-05-01T15:05:56;13.50;99.90
15556;DHT22;7879;48.660;9.116;2023-05-01T15:08:26;13.40;99.90
15556;DHT22;7879;48.660;9.116;2023-05-01T15:10:53;13.20;99.90
15556;DHT22;7879;48.660;9.116;2023-05-01T15:13:28;13.00;99.90
15556;DHT22;7879;48.660;9.116;2023-05-01T15:16:28;12.90;99.90
15556;DHT22;7879;48.660;9.116;2023-05-01T15:19:26;12.80;99.90
15556;DHT22;7879;48.660;9.116;2023-05-01T15:22:44;12.80;99.90
15556;DHT22;7879;48.660;9.116;2023-05-01T15:25:21;12.80;99.90
15556;DHT22;7879;48.660;9.116;2023-05-01T15:27:50;12.70;99.90
15556;DHT22;7879;48.660;9.116;2023-05-01T15:30:21;12.60;99.90
15556;DHT22;7879;48.660;9.116;2023-05-01T15:32:56;12.50;99.90
15556;DHT22;7879;48.660;9.116;2023-05-01T15:35:26;12.60;99.90
15556;DHT22;7879;48.660;9.116;2023-05-01T15:37:59;12.50;99.90
15556;DHT22;7879;48.660;9.116;2023-05-01T15:40:26;12.30;99.90
15556;DHT22;7879;48.660;9.116;2023-05-01T15:43:10;12.30;99.90
15556;DHT22;7879;48.660;9.116;2023-05-01T15:45:39;12.30;99.90
15556;DHT22;7879;48.660;9.116;2023-05-01T15:48:11;12.40;99.90
15556;DHT22;7879;48.660;9.116;2023-05-01T15:50:39;12.50;99.90
15556;DHT22;7879;48.660;9.116;2023-05-01T15:53:06;12.60;99.90
15556;DHT22;7879;48.660;9.116;2023-05-01T15:55:33;12.80;99.90
15556;DHT22;7879;48.660;9.116;2023-05-01T15:58:00;13.00;99.90
15556;DHT22;7879;48.660;9.116;2023-05-01T16:00:28;13.00;99.90
15556;DHT22;7879;48.660;9.116;2023-05-01T16:02:55;13.00;99.90
15556;DHT22;7879;48.660;9.116;2023-05-01T16:05:22;13.00;99.90
15556;DHT22;7879;48.660;9.116;2023-05-01T16:07:53;12.90;99.90
15556;DHT22;7879;48.660;9.116;2023-05-01T16:10:20;12.90;99.90
15556;DHT22;7879;48.660;9.116;2023-05-01T16:12:54;12.90;99.90
15556;DHT22;7879;48.660;9.116;2023-05-01T16:15:21;13.00;99.90
15556;DHT22;7879;48.660;9.116;2023-05-01T16:17:48;13.00;99.90
15556;DHT22;7879;48.660;9.116;2023-05-01T16:20:17;12.90;99.90
15556;DHT22;7879;48.660;9.116;2023-05-01T16:22:44;13.00;99.90
15556;DHT22;7879;48.660;9.116;2023-05-01T16:25:11;12.90;99.90
15556;DHT22;7879;48.660;9.116;2023-05-01T16:27:43;12.80;99.90
15556;DHT22;7879;48.660;9.116;2023-05-01T16:30:12;12.80;99.90
15556;DHT22;7879;48.660;9.116;2023-05-01T16:32:43;12.80;99.90
15556;DHT22;7879;48.660;9.116;2023-05-01T16:35:15;12.70;99.90
15556;DHT22;7879;48.660;9.116;2023-05-01T16:37:45;12.70;99.90
15556;DHT22;7879;48.660;9.116;2023-05-01T16:40:23;12.50;99.90
15556;DHT22;7879;48.660;9.116;2023-05-01T16:42:53;12.70;99.90
15556;DHT22;7879;48.660;9.116;2023-05-01T16:45:20;12.70;99.90
15556;DHT22;7879;48.660;9.116;2023-05-01T16:47:50;12.60;99.90
15556;DHT22;7879;48.660;9.116;2023-05-01T16:50:19;12.60;99.90
15556;DHT22;7879;48.660;9.116;2023-05-01T16:52:53;12.60;99.90